sensor_id;sensor_type;location;lat;lon;timestamp;P1;durP1;ratioP1;P2;durP2;ratioP2
35364;SDS011;21464;48.112;11.530;2023-12-14T00:02:19;0.90;;;0.90;;
35364;SDS011;21464;48.112;11.530;2023-12-14T00:04:45;0.80;;;0.80;;
35364;SDS011;21464;48.112;11.530;2023-12-14T00:07:12;1.00;;;1.00;;
35364;SDS011;21464;48.112;11.530;2023-12-14T00:09:40;0.93;;;0.93;;
35364;SDS011;21464;48.112;11.530;2023-12-14T00:12:06;1.10;;;1.00;;
35364;SDS011;21464;48.112;11.530;2023-12-14T00:14:33;3.27;;;1.40;;
35364;SDS011;21464;48.112;11.530;2023-12-14T00:16:59;0.87;;;0.80;;
35364;SDS011;21464;48.112;11.530;2023-12-14T00:19:25;1.30;;;1.20;;
35364;SDS011;21464;48.112;11.530;2023-12-14T00:21:51;1.00;;;1.00;;
35364;SDS011;21464;48.112;11.530;2023-12-14T00:24:18;1.33;;;1.30;;
35364;SDS011;21464;48.112;11.530;2023-12-14T00:26:44;1.10;;;1.10;;
35364;SDS011;21464;48.112;11.530;2023-12-14T00:29:10;1.30;;;1.20;;
35364;SDS011;21464;48.112;11.530;2023-12-14T00:31:37;1.40;;;1.30;;
35364;SDS011;21464;48.112;11.530;2023-12-14T00:34:03;1.43;;;1.33;;
35364;SDS011;21464;48.112;11.530;2023-12-14T00:36:29;1.53;;;1.13;;
35364;SDS011;21464;48.112;11.530;2023-12-14T00:38:55;1.10;;;1.00;;
35364;SDS011;21464;48.112;11.530;2023-12-14T00:41:23;1.70;;;1.20;;
35364;SDS011;21464;48.112;11.530;2023-12-14T00:43:49;1.53;;;1.20;;
35364;SDS011;21464;48.112;11.530;2023-12-14T00:46:15;1.10;;;1.10;;
35364;SDS011;21464;48.112;11.530;2023-12-14T00:48:41;1.13;;;1.13;;
35364;SDS011;21464;48.112;11.530;2023-12-14T00:51:08;1.23;;;1.23;;
35364;SDS011;21464;48.112;11.530;2023-12-14T00:53:34;1.50;;;1.40;;
35364;SDS011;21464;48.112;11.530;2023-12-14T00:56:00;1.47;;;1.40;;
35364;SDS011;21464;48.112;11.530;2023-12-14T00:58:26;1.50;;;1.40;;
35364;SDS011;21464;48.112;11.530;2023-12-14T01:00:53;1.73;;;1.57;;
35364;SDS011;21464;48.112;11.530;2023-12-14T01:03:20;1.57;;;1.47;;
35364;SDS011;21464;48.112;11.530;2023-12-14T01:05:46;1.77;;;1.60;;
35364;SDS011;21464;48.112;11.530;2023-12-14T01:08:13;1.40;;;1.30;;
35364;SDS011;21464;48.112;11.530;2023-12-14T01:10:40;1.67;;;1.57;;
35364;SDS011;21464;48.112;11.530;2023-12-14T01:13:07;1.80;;;1.70;;
35364;SDS011;21464;48.112;11.530;2023-12-14T01:15:33;1.90;;;1.80;;
35364;SDS011;21464;48.112;11.530;2023-12-14T01:18:00;1.67;;;1.57;;
35364;SDS011;21464;48.112;11.530;2023-12-14T01:20:26;1.63;;;1.53;;
35364;SDS011;21464;48.112;11.530;2023-12-14T01:22:53;2.93;;;1.50;;
35364;SDS011;21464;48.112;11.530;2023-12-14T01:25:19;1.40;;;1.33;;
35364;SDS011;21464;48.112;11.530;2023-12-14T01:27:45;1.27;;;1.20;;
35364;SDS011;21464;48.112;11.530;2023-12-14T01:30:12;1.20;;;1.20;;
35364;SDS011;21464;48.112;11.530;2023-12-14T01:32:38;1.03;;;0.97;;
35364;SDS011;21464;48.112;11.530;2023-12-14T01:35:04;1.00;;;1.00;;
35364;SDS011;21464;48.112;11.530;2023-12-14T01:37:31;1.00;;;1.00;;
35364;SDS011;21464;48.112;11.530;2023-12-14T01:39:57;0.97;;;0.97;;
35364;SDS011;21464;48.112;11.530;2023-12-14T01:42:24;1.20;;;1.10;;
35364;SDS011;21464;48.112;11.530;2023-12-14T01:44:50;1.10;;;1.00;;
35364;SDS011;21464;48.112;11.530;2023-12-14T01:47:16;1.00;;;1.00;;
35364;SDS011;21464;48.112;11.530;2023-12-14T01:49:43;1.30;;;1.13;;
35364;SDS011;21464;48.112;11.530;2023-12-14T01:52:09;1.20;;;1.20;;
35364;SDS011;21464;48.112;11.530;2023-12-14T01:54:35;1.27;;;1.27;;
35364;SDS011;21464;48.112;11.530;2023-12-14T01:57:02;1.23;;;1.23;;
35364;SDS011;21464;48.112;11.530;2023-12-14T01:59:28;2.23;;;1.30;;
35364;SDS011;21464;48.112;11.530;2023-12-14T02:01:54;1.40;;;1.30;;
35364;SDS011;21464;48.112;11.530;2023-12-14T02:04:23;1.40;;;1.30;;
35364;SDS011;21464;48.112;11.530;2023-12-14T02:06:49;1.60;;;1.50;;
35364;SDS011;21464;48.112;11.530;2023-12-14T02:09:16;1.70;;;1.60;;
35364;SDS011;21464;48.112;11.530;2023-12-14T02:11:42;1.60;;;1.50;;
35364;SDS011;21464;48.112;11.530;2023-12-14T02:14:09;2.20;;;1.63;;
35364;SDS011;21464;48.112;11.530;2023-12-14T02:16:36;1.80;;;1.70;;
35364;SDS011;21464;48.112;11.530;2023-12-14T02:19:04;1.70;;;1.60;;
35364;SDS011;21464;48.112;11.530;2023-12-14T02:21:31;1.97;;;1.77;;
35364;SDS011;21464;48.112;11.530;2023-12-14T02:23:57;1.70;;;1.60;;
35364;SDS011;21464;48.112;11.530;2023-12-14T02:26:23;1.50;;;1.40;;
35364;SDS011;21464;48.112;11.530;2023-12-14T02:28:50;1.63;;;1.53;;
35364;SDS011;21464;48.112;11.530;2023-12-14T02:31:17;1.47;;;1.37;;
35364;SDS011;21464;48.112;11.530;2023-12-14T02:33:44;1.73;;;1.60;;
35364;SDS011;21464;48.112;11.530;2023-12-14T02:36:11;1.70;;;1.60;;
35364;SDS011;21464;48.112;11.530;2023-12-14T02:38:37;2.00;;;1.90;;
35364;SDS011;21464;48.112;11.530;2023-12-14T02:41:03;1.93;;;1.83;;
35364;SDS011;21464;48.112;11.530;2023-12-14T02:43:30;1.87;;;1.77;;
35364;SDS011;21464;48.112;11.530;2023-12-14T02:45:56;1.70;;;1.60;;
35364;SDS011;21464;48.112;11.530;2023-12-14T02:48:28;1.70;;;1.60;;
35364;SDS011;21464;48.112;11.530;2023-12-14T02:50:55;1.83;;;1.53;;
35364;SDS011;21464;48.112;11.530;2023-12-14T02:53:22;1.83;;;1.60;;
35364;SDS011;21464;48.112;11.530;2023-12-14T02:55:48;1.60;;;1.50;;
35364;SDS011;21464;48.112;11.530;2023-12-14T03:01:05;1.87;;;1.77;;
35364;SDS011;21464;48.112;11.530;2023-12-14T03:03:33;2.20;;;2.10;;
35364;SDS011;21464;48.112;11.530;2023-12-14T03:05:59;2.47;;;2.10;;
35364;SDS011;21464;48.112;11.530;2023-12-14T03:08:26;2.37;;;2.27;;
35364;SDS011;21464;48.112;11.530;2023-12-14T03:10:52;2.37;;;2.27;;
35364;SDS011;21464;48.112;11.530;2023-12-14T03:13:19;2.40;;;2.20;;
35364;SDS011;21464;48.112;11.530;2023-12-14T03:15:45;2.60;;;2.40;;
35364;SDS011;21464;48.112;11.530;2023-12-14T03:18:12;3.17;;;2.60;;
35364;SDS011;21464;48.112;11.530;2023-12-14T03:20:38;2.67;;;2.47;;
35364;SDS011;21464;48.112;11.530;2023-12-14T03:23:04;2.33;;;2.20;;
35364;SDS011;21464;48.112;11.530;2023-12-14T03:25:30;2.63;;;2.43;;
35364;SDS011;21464;48.112;11.530;2023-12-14T03:27:57;2.50;;;2.40;;
35364;SDS011;21464;48.112;11.530;2023-12-14T03:30:23;2.90;;;2.70;;
35364;SDS011;21464;48.112;11.530;2023-12-14T03:32:49;2.60;;;2.43;;
35364;SDS011;21464;48.112;11.530;2023-12-14T03:35:16;2.43;;;2.23;;
35364;SDS011;21464;48.112;11.530;2023-12-14T03:37:42;2.17;;;2.00;;
35364;SDS011;21464;48.112;11.530;2023-12-14T03:40:08;2.40;;;2.20;;
35364;SDS011;21464;48.112;11.530;2023-12-14T03:42:35;2.20;;;2.10;;
35364;SDS011;21464;48.112;11.530;2023-12-14T03:45:01;1.93;;;1.83;;
35364;SDS011;21464;48.112;11.530;2023-12-14T03:47:27;2.20;;;2.10;;
35364;SDS011;21464;48.112;11.530;2023-12-14T03:49:54;2.03;;;1.93;;
35364;SDS011;21464;48.112;11.530;2023-12-14T03:52:20;2.10;;;2.00;;
35364;SDS011;21464;48.112;11.530;2023-12-14T03:54:46;2.00;;;1.90;;
35364;SDS011;21464;48.112;11.530;2023-12-14T03:57:12;2.10;;;1.87;;
35364;SDS011;21464;48.112;11.530;2023-12-14T03:59:39;2.00;;;1.90;;
35364;SDS011;21464;48.112;11.530;2023-12-14T04:02:06;2.10;;;1.90;;
35364;SDS011;21464;48.112;11.530;2023-12-14T04:04:32;1.90;;;1.80;;
35364;SDS011;21464;48.112;11.530;2023-12-14T04:06:59;2.00;;;1.90;;
35364;SDS011;21464;48.112;11.530;2023-12-14T04:09:25;2.30;;;2.20;;
35364;SDS011;21464;48.112;11.530;2023-12-14T04:11:51;2.13;;;2.03;;
35364;SDS011;21464;48.112;11.530;2023-12-14T04:14:18;2.20;;;2.00;;
35364;SDS011;21464;48.112;11.530;2023-12-14T04:16:44;2.23;;;2.03;;
35364;SDS011;21464;48.112;11.530;2023-12-14T04:19:10;2.40;;;2.30;;
35364;SDS011;21464;48.112;11.530;2023-12-14T04:21:36;1.90;;;1.80;;
35364;SDS011;21464;48.112;11.530;2023-12-14T04:24:03;2.00;;;1.90;;
35364;SDS011;21464;48.112;11.530;2023-12-14T04:26:29;2.03;;;1.93;;
35364;SDS011;21464;48.112;11.530;2023-12-14T04:28:56;2.10;;;2.00;;
35364;SDS011;21464;48.112;11.530;2023-12-14T04:31:22;2.23;;;1.90;;
35364;SDS011;21464;48.112;11.530;2023-12-14T04:33:48;2.00;;;1.90;;
35364;SDS011;21464;48.112;11.530;2023-12-14T04:36:14;1.90;;;1.80;;
35364;SDS011;21464;48.112;11.530;2023-12-14T04:38:41;1.70;;;1.60;;
35364;SDS011;21464;48.112;11.530;2023-12-14T04:41:08;1.97;;;1.87;;
35364;SDS011;21464;48.112;11.530;2023-12-14T04:43:35;1.60;;;1.50;;
35364;SDS011;21464;48.112;11.530;2023-12-14T04:46:01;2.07;;;1.80;;
35364;SDS011;21464;48.112;11.530;2023-12-14T04:48:27;1.53;;;1.50;;
35364;SDS011;21464;48.112;11.530;2023-12-14T04:50:53;1.47;;;1.40;;
35364;SDS011;21464;48.112;11.530;2023-12-14T04:53:20;1.40;;;1.40;;
35364;SDS011;21464;48.112;11.530;2023-12-14T04:55:46;1.30;;;1.30;;
35364;SDS011;21464;48.112;11.530;2023-12-14T04:58:12;2.10;;;1.20;;
35364;SDS011;21464;48.112;11.530;2023-12-14T05:00:38;1.40;;;0.90;;
35364;SDS011;21464;48.112;11.530;2023-12-14T05:03:05;1.20;;;1.20;;
35364;SDS011;21464;48.112;11.530;2023-12-14T05:05:31;1.00;;;1.00;;
35364;SDS011;21464;48.112;11.530;2023-12-14T05:07:58;0.70;;;0.70;;
35364;SDS011;21464;48.112;11.530;2023-12-14T05:10:24;1.43;;;1.00;;
35364;SDS011;21464;48.112;11.530;2023-12-14T05:12:50;1.13;;;1.07;;
35364;SDS011;21464;48.112;11.530;2023-12-14T05:15:16;1.00;;;1.00;;
35364;SDS011;21464;48.112;11.530;2023-12-14T05:17:44;1.30;;;1.30;;
35364;SDS011;21464;48.112;11.530;2023-12-14T05:20:11;1.20;;;1.10;;
35364;SDS011;21464;48.112;11.530;2023-12-14T05:22:37;1.50;;;1.27;;
35364;SDS011;21464;48.112;11.530;2023-12-14T05:25:04;1.20;;;1.10;;
35364;SDS011;21464;48.112;11.530;2023-12-14T05:27:30;1.93;;;1.13;;
35364;SDS011;21464;48.112;11.530;2023-12-14T05:29:56;1.40;;;1.40;;
35364;SDS011;21464;48.112;11.530;2023-12-14T05:32:23;2.70;;;1.53;;
35364;SDS011;21464;48.112;11.530;2023-12-14T05:34:49;1.60;;;1.50;;
35364;SDS011;21464;48.112;11.530;2023-12-14T05:37:16;1.60;;;1.50;;
35364;SDS011;21464;48.112;11.530;2023-12-14T05:39:42;1.70;;;1.60;;
35364;SDS011;21464;48.112;11.530;2023-12-14T05:42:09;2.07;;;1.90;;
35364;SDS011;21464;48.112;11.530;2023-12-14T05:44:35;2.03;;;1.90;;
35364;SDS011;21464;48.112;11.530;2023-12-14T05:47:01;2.10;;;2.00;;
35364;SDS011;21464;48.112;11.530;2023-12-14T05:49:28;3.53;;;2.57;;
35364;SDS011;21464;48.112;11.530;2023-12-14T05:51:54;2.40;;;2.30;;
35364;SDS011;21464;48.112;11.530;2023-12-14T05:54:20;2.30;;;2.10;;
35364;SDS011;21464;48.112;11.530;2023-12-14T05:56:46;2.13;;;2.03;;
35364;SDS011;21464;48.112;11.530;2023-12-14T05:59:13;2.67;;;2.30;;
35364;SDS011;21464;48.112;11.530;2023-12-14T06:01:39;3.83;;;3.47;;
35364;SDS011;21464;48.112;11.530;2023-12-14T06:04:05;5.50;;;4.10;;
35364;SDS011;21464;48.112;11.530;2023-12-14T06:06:31;4.27;;;3.10;;
35364;SDS011;21464;48.112;11.530;2023-12-14T06:08:58;2.90;;;2.70;;
35364;SDS011;21464;48.112;11.530;2023-12-14T06:11:24;3.13;;;2.83;;
35364;SDS011;21464;48.112;11.530;2023-12-14T06:13:50;3.47;;;3.03;;
35364;SDS011;21464;48.112;11.530;2023-12-14T06:16:16;3.23;;;2.93;;
35364;SDS011;21464;48.112;11.530;2023-12-14T06:18:43;5.00;;;4.50;;
35364;SDS011;21464;48.112;11.530;2023-12-14T06:21:10;3.40;;;3.10;;
35364;SDS011;21464;48.112;11.530;2023-12-14T06:23:37;4.07;;;3.40;;
35364;SDS011;21464;48.112;11.530;2023-12-14T06:26:03;5.53;;;4.37;;
35364;SDS011;21464;48.112;11.530;2023-12-14T06:28:30;3.70;;;3.30;;
35364;SDS011;21464;48.112;11.530;2023-12-14T06:30:56;4.07;;;3.67;;
35364;SDS011;21464;48.112;11.530;2023-12-14T06:33:23;3.63;;;3.33;;
35364;SDS011;21464;48.112;11.530;2023-12-14T06:35:49;4.47;;;3.80;;
35364;SDS011;21464;48.112;11.530;2023-12-14T06:38:16;3.57;;;3.27;;
35364;SDS011;21464;48.112;11.530;2023-12-14T06:40:42;6.03;;;4.13;;
35364;SDS011;21464;48.112;11.530;2023-12-14T06:43:08;4.13;;;3.77;;
35364;SDS011;21464;48.112;11.530;2023-12-14T06:45:37;9.73;;;6.77;;
35364;SDS011;21464;48.112;11.530;2023-12-14T06:48:04;6.87;;;4.23;;
35364;SDS011;21464;48.112;11.530;2023-12-14T06:50:30;4.97;;;3.83;;
35364;SDS011;21464;48.112;11.530;2023-12-14T06:52:57;7.80;;;4.30;;
35364;SDS011;21464;48.112;11.530;2023-12-14T06:55:23;6.77;;;4.97;;
35364;SDS011;21464;48.112;11.530;2023-12-14T06:57:49;9.67;;;5.23;;
35364;SDS011;21464;48.112;11.530;2023-12-14T07:00:16;12.63;;;5.50;;
35364;SDS011;21464;48.112;11.530;2023-12-14T07:02:42;14.27;;;5.87;;
35364;SDS011;21464;48.112;11.530;2023-12-14T07:05:10;7.87;;;4.77;;
35364;SDS011;21464;48.112;11.530;2023-12-14T07:07:36;9.70;;;4.60;;
35364;SDS011;21464;48.112;11.530;2023-12-14T07:10:03;8.97;;;5.43;;
35364;SDS011;21464;48.112;11.530;2023-12-14T07:12:29;9.77;;;5.63;;
35364;SDS011;21464;48.112;11.530;2023-12-14T07:14:56;7.67;;;5.67;;
35364;SDS011;21464;48.112;11.530;2023-12-14T07:17:22;9.27;;;6.23;;
35364;SDS011;21464;48.112;11.530;2023-12-14T07:19:50;7.30;;;5.73;;
35364;SDS011;21464;48.112;11.530;2023-12-14T07:22:17;9.63;;;5.70;;
35364;SDS011;21464;48.112;11.530;2023-12-14T07:24:43;9.23;;;8.27;;
35364;SDS011;21464;48.112;11.530;2023-12-14T07:27:09;6.50;;;5.37;;
35364;SDS011;21464;48.112;11.530;2023-12-14T07:29:35;5.47;;;4.97;;
35364;SDS011;21464;48.112;11.530;2023-12-14T07:32:02;5.83;;;4.97;;
35364;SDS011;21464;48.112;11.530;2023-12-14T07:34:29;6.50;;;5.50;;
35364;SDS011;21464;48.112;11.530;2023-12-14T07:36:55;6.33;;;5.30;;
35364;SDS011;21464;48.112;11.530;2023-12-14T07:39:21;6.07;;;5.40;;
35364;SDS011;21464;48.112;11.530;2023-12-14T07:41:47;6.63;;;5.90;;
35364;SDS011;21464;48.112;11.530;2023-12-14T07:44:14;7.37;;;5.53;;
35364;SDS011;21464;48.112;11.530;2023-12-14T07:46:40;11.43;;;5.87;;
35364;SDS011;21464;48.112;11.530;2023-12-14T07:49:08;8.87;;;6.30;;
35364;SDS011;21464;48.112;11.530;2023-12-14T07:51:35;10.30;;;6.70;;
35364;SDS011;21464;48.112;11.530;2023-12-14T07:54:01;12.87;;;6.93;;
35364;SDS011;21464;48.112;11.530;2023-12-14T07:56:29;9.27;;;6.63;;
35364;SDS011;21464;48.112;11.530;2023-12-14T07:58:55;11.67;;;6.40;;
35364;SDS011;21464;48.112;11.530;2023-12-14T08:01:22;12.53;;;6.70;;
35364;SDS011;21464;48.112;11.530;2023-12-14T08:03:48;8.90;;;6.43;;
35364;SDS011;21464;48.112;11.530;2023-12-14T08:06:14;10.13;;;6.53;;
35364;SDS011;21464;48.112;11.530;2023-12-14T08:08:41;7.30;;;6.33;;
35364;SDS011;21464;48.112;11.530;2023-12-14T08:11:08;8.40;;;6.37;;
35364;SDS011;21464;48.112;11.530;2023-12-14T08:13:34;7.83;;;5.53;;
35364;SDS011;21464;48.112;11.530;2023-12-14T08:16:00;7.53;;;5.70;;
35364;SDS011;21464;48.112;11.530;2023-12-14T08:18:26;6.17;;;5.43;;
35364;SDS011;21464;48.112;11.530;2023-12-14T08:20:53;7.00;;;5.70;;
35364;SDS011;21464;48.112;11.530;2023-12-14T08:23:21;5.97;;;5.33;;
35364;SDS011;21464;48.112;11.530;2023-12-14T08:25:47;5.90;;;5.30;;
35364;SDS011;21464;48.112;11.530;2023-12-14T08:28:13;5.73;;;5.13;;
35364;SDS011;21464;48.112;11.530;2023-12-14T08:30:40;8.10;;;5.77;;
35364;SDS011;21464;48.112;11.530;2023-12-14T08:33:07;7.00;;;5.93;;
35364;SDS011;21464;48.112;11.530;2023-12-14T08:35:35;6.50;;;5.83;;
35364;SDS011;21464;48.112;11.530;2023-12-14T08:38:02;6.33;;;5.73;;
35364;SDS011;21464;48.112;11.530;2023-12-14T08:40:28;7.43;;;6.63;;
35364;SDS011;21464;48.112;11.530;2023-12-14T08:42:54;6.40;;;5.77;;
35364;SDS011;21464;48.112;11.530;2023-12-14T08:45:21;7.20;;;5.67;;
35364;SDS011;21464;48.112;11.530;2023-12-14T08:47:47;9.47;;;6.50;;
35364;SDS011;21464;48.112;11.530;2023-12-14T08:50:13;6.83;;;6.13;;
35364;SDS011;21464;48.112;11.530;2023-12-14T08:52:40;7.97;;;5.80;;
35364;SDS011;21464;48.112;11.530;2023-12-14T08:55:07;6.10;;;5.47;;
35364;SDS011;21464;48.112;11.530;2023-12-14T08:57:34;9.77;;;5.27;;
35364;SDS011;21464;48.112;11.530;2023-12-14T09:00:01;6.10;;;5.40;;
35364;SDS011;21464;48.112;11.530;2023-12-14T09:02:31;8.13;;;5.33;;
35364;SDS011;21464;48.112;11.530;2023-12-14T09:04:57;7.43;;;5.83;;
35364;SDS011;21464;48.112;11.530;2023-12-14T09:07:23;7.47;;;5.70;;
35364;SDS011;21464;48.112;11.530;2023-12-14T09:09:49;6.13;;;5.53;;
35364;SDS011;21464;48.112;11.530;2023-12-14T09:12:16;6.23;;;5.23;;
35364;SDS011;21464;48.112;11.530;2023-12-14T09:14:42;6.40;;;5.80;;
35364;SDS011;21464;48.112;11.530;2023-12-14T09:17:08;6.33;;;5.73;;
35364;SDS011;21464;48.112;11.530;2023-12-14T09:19:34;9.57;;;6.10;;
35364;SDS011;21464;48.112;11.530;2023-12-14T09:22:01;6.23;;;5.70;;
35364;SDS011;21464;48.112;11.530;2023-12-14T09:24:27;8.07;;;6.33;;
35364;SDS011;21464;48.112;11.530;2023-12-14T09:26:54;6.97;;;5.40;;
35364;SDS011;21464;48.112;11.530;2023-12-14T09:29:21;7.47;;;6.40;;
35364;SDS011;21464;48.112;11.530;2023-12-14T09:31:47;7.50;;;6.70;;
35364;SDS011;21464;48.112;11.530;2023-12-14T09:34:13;8.87;;;6.47;;
35364;SDS011;21464;48.112;11.530;2023-12-14T09:36:40;6.70;;;6.10;;
35364;SDS011;21464;48.112;11.530;2023-12-14T09:39:06;7.93;;;6.00;;
35364;SDS011;21464;48.112;11.530;2023-12-14T09:41:39;6.57;;;5.50;;
35364;SDS011;21464;48.112;11.530;2023-12-14T09:44:05;8.83;;;5.70;;
35364;SDS011;21464;48.112;11.530;2023-12-14T09:46:36;6.80;;;5.90;;
35364;SDS011;21464;48.112;11.530;2023-12-14T09:49:04;6.60;;;5.53;;
35364;SDS011;21464;48.112;11.530;2023-12-14T09:51:30;7.10;;;6.40;;
35364;SDS011;21464;48.112;11.530;2023-12-14T09:53:57;5.23;;;4.73;;
35364;SDS011;21464;48.112;11.530;2023-12-14T09:56:24;5.83;;;4.87;;
35364;SDS011;21464;48.112;11.530;2023-12-14T09:58:51;5.23;;;4.73;;
35364;SDS011;21464;48.112;11.530;2023-12-14T10:01:21;7.87;;;4.40;;
35364;SDS011;21464;48.112;11.530;2023-12-14T10:04:03;7.03;;;5.50;;
35364;SDS011;21464;48.112;11.530;2023-12-14T10:06:35;7.73;;;4.70;;
35364;SDS011;21464;48.112;11.530;2023-12-14T10:09:02;4.83;;;3.70;;
35364;SDS011;21464;48.112;11.530;2023-12-14T10:11:30;4.57;;;3.77;;
35364;SDS011;21464;48.112;11.530;2023-12-14T10:13:56;3.37;;;3.07;;
35364;SDS011;21464;48.112;11.530;2023-12-14T10:16:26;4.60;;;3.30;;
35364;SDS011;21464;48.112;11.530;2023-12-14T10:18:57;2.90;;;2.70;;
35364;SDS011;21464;48.112;11.530;2023-12-14T10:21:27;4.60;;;3.20;;
35364;SDS011;21464;48.112;11.530;2023-12-14T10:23:56;4.30;;;3.07;;
35364;SDS011;21464;48.112;11.530;2023-12-14T10:26:23;3.33;;;3.03;;
35364;SDS011;21464;48.112;11.530;2023-12-14T10:28:54;3.90;;;3.50;;
35364;SDS011;21464;48.112;11.530;2023-12-14T10:31:20;3.70;;;3.17;;
35364;SDS011;21464;48.112;11.530;2023-12-14T10:33:47;4.83;;;3.33;;
35364;SDS011;21464;48.112;11.530;2023-12-14T10:36:14;6.23;;;3.23;;
35364;SDS011;21464;48.112;11.530;2023-12-14T10:38:43;4.40;;;3.10;;
35364;SDS011;21464;48.112;11.530;2023-12-14T10:41:11;5.17;;;3.57;;
35364;SDS011;21464;48.112;11.530;2023-12-14T10:43:39;2.33;;;2.13;;
35364;SDS011;21464;48.112;11.530;2023-12-14T10:46:07;2.90;;;2.70;;
35364;SDS011;21464;48.112;11.530;2023-12-14T10:48:36;4.07;;;3.07;;
35364;SDS011;21464;48.112;11.530;2023-12-14T10:51:03;3.90;;;3.37;;
35364;SDS011;21464;48.112;11.530;2023-12-14T10:53:32;3.80;;;3.00;;
35364;SDS011;21464;48.112;11.530;2023-12-14T10:55:59;4.17;;;2.70;;
35364;SDS011;21464;48.112;11.530;2023-12-14T10:58:26;4.40;;;2.90;;
35364;SDS011;21464;48.112;11.530;2023-12-14T11:00:59;4.63;;;3.27;;
35364;SDS011;21464;48.112;11.530;2023-12-14T11:03:34;4.03;;;3.13;;
35364;SDS011;21464;48.112;11.530;2023-12-14T11:06:01;4.83;;;2.97;;
35364;SDS011;21464;48.112;11.530;2023-12-14T11:08:30;3.83;;;2.90;;
35364;SDS011;21464;48.112;11.530;2023-12-14T11:11:03;3.57;;;3.03;;
35364;SDS011;21464;48.112;11.530;2023-12-14T11:13:36;3.27;;;2.97;;
35364;SDS011;21464;48.112;11.530;2023-12-14T11:16:04;4.03;;;3.20;;
35364;SDS011;21464;48.112;11.530;2023-12-14T11:18:31;3.23;;;2.93;;
35364;SDS011;21464;48.112;11.530;2023-12-14T11:20:58;2.90;;;2.70;;
35364;SDS011;21464;48.112;11.530;2023-12-14T11:25:52;3.10;;;2.37;;
35364;SDS011;21464;48.112;11.530;2023-12-14T11:28:19;2.70;;;2.50;;
35364;SDS011;21464;48.112;11.530;2023-12-14T11:30:46;2.30;;;2.20;;
35364;SDS011;21464;48.112;11.530;2023-12-14T11:33:13;2.40;;;2.20;;
35364;SDS011;21464;48.112;11.530;2023-12-14T11:35:40;2.60;;;2.20;;
35364;SDS011;21464;48.112;11.530;2023-12-14T11:38:06;2.10;;;1.90;;
35364;SDS011;21464;48.112;11.530;2023-12-14T11:40:41;2.27;;;1.90;;
35364;SDS011;21464;48.112;11.530;2023-12-14T11:43:08;1.90;;;1.80;;
35364;SDS011;21464;48.112;11.530;2023-12-14T11:45:35;1.90;;;1.80;;
35364;SDS011;21464;48.112;11.530;2023-12-14T11:48:08;2.33;;;2.13;;
35364;SDS011;21464;48.112;11.530;2023-12-14T11:50:37;1.90;;;1.80;;
35364;SDS011;21464;48.112;11.530;2023-12-14T11:53:04;2.73;;;1.97;;
35364;SDS011;21464;48.112;11.530;2023-12-14T11:55:31;2.37;;;2.10;;
35364;SDS011;21464;48.112;11.530;2023-12-14T11:57:59;2.03;;;1.93;;
35364;SDS011;21464;48.112;11.530;2023-12-14T12:00:26;2.40;;;1.80;;
35364;SDS011;21464;48.112;11.530;2023-12-14T12:08:10;1.53;;;1.43;;
35364;SDS011;21464;48.112;11.530;2023-12-14T12:10:39;2.53;;;1.43;;
35364;SDS011;21464;48.112;11.530;2023-12-14T12:13:11;1.80;;;1.70;;
35364;SDS011;21464;48.112;11.530;2023-12-14T12:15:42;1.77;;;1.67;;
35364;SDS011;21464;48.112;11.530;2023-12-14T12:18:09;1.90;;;1.70;;
35364;SDS011;21464;48.112;11.530;2023-12-14T12:20:36;1.60;;;1.50;;
35364;SDS011;21464;48.112;11.530;2023-12-14T12:23:03;1.73;;;1.43;;
35364;SDS011;21464;48.112;11.530;2023-12-14T12:25:32;1.80;;;1.70;;
35364;SDS011;21464;48.112;11.530;2023-12-14T12:27:59;3.30;;;1.93;;
35364;SDS011;21464;48.112;11.530;2023-12-14T12:30:30;1.77;;;1.67;;
35364;SDS011;21464;48.112;11.530;2023-12-14T12:32:56;1.87;;;1.77;;
35364;SDS011;21464;48.112;11.530;2023-12-14T12:35:23;2.50;;;2.13;;
35364;SDS011;21464;48.112;11.530;2023-12-14T12:37:49;1.70;;;1.60;;
35364;SDS011;21464;48.112;11.530;2023-12-14T12:40:23;1.93;;;1.83;;
35364;SDS011;21464;48.112;11.530;2023-12-14T12:42:52;2.00;;;1.90;;
35364;SDS011;21464;48.112;11.530;2023-12-14T12:45:18;2.90;;;1.60;;
35364;SDS011;21464;48.112;11.530;2023-12-14T12:47:44;1.70;;;1.60;;
35364;SDS011;21464;48.112;11.530;2023-12-14T12:50:12;1.90;;;1.80;;
35364;SDS011;21464;48.112;11.530;2023-12-14T12:52:38;1.90;;;1.80;;
35364;SDS011;21464;48.112;11.530;2023-12-14T12:55:05;1.60;;;1.50;;
35364;SDS011;21464;48.112;11.530;2023-12-14T12:57:32;2.33;;;2.00;;
35364;SDS011;21464;48.112;11.530;2023-12-14T12:59:58;1.90;;;1.80;;
35364;SDS011;21464;48.112;11.530;2023-12-14T13:02:25;1.93;;;1.50;;
35364;SDS011;21464;48.112;11.530;2023-12-14T13:04:51;1.60;;;1.50;;
35364;SDS011;21464;48.112;11.530;2023-12-14T13:07:17;1.10;;;1.00;;
35364;SDS011;21464;48.112;11.530;2023-12-14T13:09:44;1.50;;;1.40;;
35364;SDS011;21464;48.112;11.530;2023-12-14T13:12:11;1.67;;;1.57;;
35364;SDS011;21464;48.112;11.530;2023-12-14T13:14:37;1.80;;;1.70;;
35364;SDS011;21464;48.112;11.530;2023-12-14T13:17:03;1.60;;;1.50;;
35364;SDS011;21464;48.112;11.530;2023-12-14T13:19:29;1.93;;;1.50;;
35364;SDS011;21464;48.112;11.530;2023-12-14T13:21:56;1.50;;;1.40;;
35364;SDS011;21464;48.112;11.530;2023-12-14T13:24:25;1.93;;;1.60;;
35364;SDS011;21464;48.112;11.530;2023-12-14T13:26:51;2.57;;;1.90;;
35364;SDS011;21464;48.112;11.530;2023-12-14T13:29:18;2.20;;;2.00;;
35364;SDS011;21464;48.112;11.530;2023-12-14T13:31:44;2.10;;;2.00;;
35364;SDS011;21464;48.112;11.530;2023-12-14T13:34:10;2.40;;;2.20;;
35364;SDS011;21464;48.112;11.530;2023-12-14T13:36:37;2.17;;;1.97;;
35364;SDS011;21464;48.112;11.530;2023-12-14T13:39:03;1.97;;;1.83;;
35364;SDS011;21464;48.112;11.530;2023-12-14T13:41:29;2.20;;;2.00;;
35364;SDS011;21464;48.112;11.530;2023-12-14T13:43:59;2.37;;;2.17;;
35364;SDS011;21464;48.112;11.530;2023-12-14T13:46:26;2.30;;;2.10;;
35364;SDS011;21464;48.112;11.530;2023-12-14T13:48:53;5.10;;;4.17;;
35364;SDS011;21464;48.112;11.530;2023-12-14T13:51:19;2.97;;;2.67;;
35364;SDS011;21464;48.112;11.530;2023-12-14T13:53:45;2.10;;;2.00;;
35364;SDS011;21464;48.112;11.530;2023-12-14T13:56:12;2.30;;;2.00;;
35364;SDS011;21464;48.112;11.530;2023-12-14T13:58:38;2.63;;;2.10;;
35364;SDS011;21464;48.112;11.530;2023-12-14T14:01:04;2.00;;;1.90;;
35364;SDS011;21464;48.112;11.530;2023-12-14T14:03:59;3.70;;;2.20;;
35364;SDS011;21464;48.112;11.530;2023-12-14T14:06:25;4.27;;;2.47;;
35364;SDS011;21464;48.112;11.530;2023-12-14T14:08:51;2.50;;;2.30;;
35364;SDS011;21464;48.112;11.530;2023-12-14T14:11:18;2.70;;;2.40;;
35364;SDS011;21464;48.112;11.530;2023-12-14T14:13:44;2.50;;;2.30;;
35364;SDS011;21464;48.112;11.530;2023-12-14T14:16:10;2.70;;;2.50;;
35364;SDS011;21464;48.112;11.530;2023-12-14T14:18:36;3.17;;;2.73;;
35364;SDS011;21464;48.112;11.530;2023-12-14T14:21:03;2.30;;;2.20;;
35364;SDS011;21464;48.112;11.530;2023-12-14T14:23:33;2.60;;;2.40;;
35364;SDS011;21464;48.112;11.530;2023-12-14T14:26:00;3.63;;;2.53;;
35364;SDS011;21464;48.112;11.530;2023-12-14T14:28:27;3.03;;;2.60;;
35364;SDS011;21464;48.112;11.530;2023-12-14T14:30:53;2.60;;;2.40;;
35364;SDS011;21464;48.112;11.530;2023-12-14T14:33:19;2.53;;;2.33;;
35364;SDS011;21464;48.112;11.530;2023-12-14T14:35:46;2.50;;;2.27;;
35364;SDS011;21464;48.112;11.530;2023-12-14T14:38:13;3.90;;;2.70;;
35364;SDS011;21464;48.112;11.530;2023-12-14T14:40:39;3.23;;;2.87;;
35364;SDS011;21464;48.112;11.530;2023-12-14T14:43:08;3.77;;;2.67;;